Time;durP1;ratioP1;P1;durP2;ratioP2;P2;SDS_P1;SDS_P2;PMS_P1;PMS_P2;Temp;Humidity;BMP_temperature;BMP_pressure;BME280_temperature;BME280_humidity;BME280_pressure;Samples;Min_cycle;Max_cycle;Signal;HPM_P1;HPM_P2
2024/01/06 00:02:11;;;;;;;0.50;0.10;;;;;;;;;;5047525;28;20536;-74
2024/01/06 00:04:39;;;;;;;0.50;0.10;;;7.00;99.90;;;;;;5037501;28;20439;-73
2024/01/06 00:07:07;;;;;;;0.50;0.10;;;;;;;;;;5032790;28;20472;-74
2024/01/06 00:09:35;;;;;;;0.50;0.10;;;7.10;99.90;;;;;;5032332;28;20816;-74
2024/01/06 00:12:03;;;;;;;0.60;0.30;;;7.10;99.90;;;;;;5032309;28;20865;-74
2024/01/06 00:14:31;;;;;;;0.60;0.40;;;7.10;99.90;;;;;;5041611;28;20444;-75
2024/01/06 00:16:58;;;;;;;0.50;0.10;;;7.10;99.90;;;;;;5050584;28;20507;-74
2024/01/06 00:19:28;;;;;;;0.50;0.10;;;7.10;99.90;;;;;;5038114;28;21175;-74
2024/01/06 00:21:55;;;;;;;0.50;0.10;;;7.10;99.90;;;;;;5041649;28;20475;-74
2024/01/06 00:24:23;;;;;;;0.50;0.10;;;7.20;99.90;;;;;;5043940;28;20444;-74
2024/01/06 00:26:51;;;;;;;0.50;0.10;;;7.10;99.90;;;;;;5043259;28;20467;-73
2024/01/06 00:29:19;;;;;;;0.50;0.10;;;7.10;99.90;;;;;;5036415;28;20448;-74
2024/01/06 00:31:47;;;;;;;0.50;0.10;;;7.10;99.90;;;;;;5051796;28;20438;-75
2024/01/06 00:34:14;;;;;;;0.50;0.30;;;7.10;99.90;;;;;;5043663;28;20476;-74
2024/01/06 00:36:44;;;;;;;0.50;0.10;;;;;;;;;;5046463;28;21056;-76
2024/01/06 00:39:12;;;;;;;0.50;0.10;;;7.10;99.90;;;;;;5051718;28;20438;-73
2024/01/06 00:41:40;;;;;;;0.50;0.10;;;7.10;99.90;;;;;;5051341;28;20475;-74
2024/01/06 00:44:08;;;;;;;0.50;0.10;;;7.10;99.90;;;;;;5051227;28;20450;-76
2024/01/06 00:46:36;;;;;;;0.50;0.10;;;7.00;99.90;;;;;;5051204;28;20993;-74
2024/01/06 00:49:04;;;;;;;0.50;0.10;;;7.00;99.90;;;;;;5041736;28;20447;-73
2024/01/06 00:51:32;;;;;;;0.50;0.10;;;7.00;99.90;;;;;;5037470;28;20455;-74
2024/01/06 00:54:03;;;;;;;0.50;0.20;;;6.90;99.90;;;;;;5047203;28;20835;-74
2024/01/06 00:56:31;;;;;;;0.50;0.10;;;7.00;99.90;;;;;;5049489;28;20554;-74
2024/01/06 00:58:59;;;;;;;0.50;0.30;;;6.90;99.90;;;;;;5043612;28;20457;-74
2024/01/06 01:01:26;;;;;;;0.50;0.10;;;6.90;99.90;;;;;;5048481;28;20482;-74
2024/01/06 01:03:54;;;;;;;0.50;0.10;;;6.90;99.90;;;;;;5053093;28;20451;-73
2024/01/06 01:06:22;;;;;;;0.50;0.10;;;6.90;99.90;;;;;;5055851;28;20466;-74
2024/01/06 01:08:50;;;;;;;0.50;0.10;;;6.90;99.90;;;;;;5045791;28;20466;-73
2024/01/06 01:11:20;;;;;;;0.50;0.10;;;7.00;99.90;;;;;;5055232;28;20453;-74
2024/01/06 01:13:48;;;;;;;0.50;0.10;;;6.90;99.90;;;;;;5052052;28;20855;-74
2024/01/06 01:16:16;;;;;;;0.50;0.10;;;6.80;99.90;;;;;;5055066;28;21021;-74
2024/01/06 01:18:44;;;;;;;0.50;0.10;;;6.90;99.90;;;;;;5047994;28;20542;-74
2024/01/06 01:21:12;;;;;;;0.50;0.10;;;6.90;99.90;;;;;;5034968;28;20481;-75
2024/01/06 01:23:40;;;;;;;0.50;0.10;;;6.90;99.90;;;;;;5042482;28;20447;-75
2024/01/06 01:26:08;;;;;;;0.50;0.10;;;6.90;99.90;;;;;;5051948;28;20459;-74
2024/01/06 01:28:37;;;;;;;0.50;0.10;;;7.00;99.90;;;;;;5037386;28;20533;-75
2024/01/06 01:31:05;;;;;;;0.50;0.10;;;7.00;99.90;;;;;;5045724;28;20447;-75
2024/01/06 01:33:33;;;;;;;0.50;0.10;;;6.90;99.90;;;;;;5055333;28;20514;-75
2024/01/06 01:36:01;;;;;;;0.50;0.10;;;7.00;99.90;;;;;;5054479;28;20807;-74
2024/01/06 01:38:30;;;;;;;0.50;0.10;;;7.00;99.90;;;;;;5048554;28;20456;-75
2024/01/06 01:40:59;;;;;;;0.50;0.10;;;7.00;99.90;;;;;;5048962;28;20964;-75
2024/01/06 01:43:28;;;;;;;0.50;0.10;;;7.00;99.90;;;;;;5066190;28;20505;-74
2024/01/06 01:45:58;;;;;;;0.50;0.20;;;7.00;99.90;;;;;;5072293;28;20477;-74
2024/01/06 01:48:26;;;;;;;0.50;0.10;;;7.10;99.90;;;;;;5038298;28;20463;-75
2024/01/06 01:50:55;;;;;;;11.50;10.80;;;7.10;99.90;;;;;;5040248;28;20458;-75
2024/01/06 01:53:25;;;;;;;0.50;0.10;;;7.10;99.90;;;;;;5034962;28;20450;-75
2024/01/06 01:55:54;;;;;;;0.50;0.10;;;7.10;99.90;;;;;;5034069;28;20483;-76
2024/01/06 01:58:22;;;;;;;0.60;0.20;;;7.10;99.90;;;;;;5047496;28;20557;-74
2024/01/06 02:00:50;;;;;;;0.50;0.10;;;7.10;99.90;;;;;;5053019;28;20464;-74
2024/01/06 02:03:20;;;;;;;0.50;0.10;;;7.10;99.90;;;;;;5042582;28;20474;-75
2024/01/06 02:05:48;;;;;;;0.60;0.40;;;7.10;99.90;;;;;;5034426;28;20494;-74
2024/01/06 02:08:16;;;;;;;0.50;0.10;;;7.10;99.90;;;;;;5045619;28;20964;-74
2024/01/06 02:10:44;;;;;;;0.50;0.10;;;7.10;99.90;;;;;;5047320;28;20451;-74
2024/01/06 02:13:12;;;;;;;0.50;0.30;;;7.10;99.90;;;;;;5034039;28;20446;-74
2024/01/06 02:15:40;;;;;;;0.50;0.20;;;7.00;99.90;;;;;;5040171;28;20862;-74
2024/01/06 02:18:08;;;;;;;0.70;0.30;;;7.00;99.90;;;;;;5042320;28;20484;-74
2024/01/06 02:20:38;;;;;;;0.70;0.20;;;6.80;99.90;;;;;;5038998;28;20930;-75
2024/01/06 02:23:07;;;;;;;1.07;0.97;;;6.80;99.90;;;;;;5043905;28;20486;-75
2024/01/06 02:25:36;;;;;;;0.50;0.10;;;6.80;99.90;;;;;;5040399;28;20478;-75
2024/01/06 02:28:04;;;;;;;0.50;0.10;;;6.80;99.90;;;;;;5041747;28;20834;-74
2024/01/06 02:30:32;;;;;;;0.50;0.17;;;6.80;99.90;;;;;;5034890;28;20448;-74
2024/01/06 02:33:00;;;;;;;0.50;0.10;;;6.80;99.90;;;;;;5053627;28;20450;-74
2024/01/06 02:35:28;;;;;;;0.50;0.10;;;6.90;99.90;;;;;;5054903;28;20806;-74
2024/01/06 02:37:56;;;;;;;0.50;0.10;;;6.80;99.90;;;;;;5049840;28;20560;-73
2024/01/06 02:40:25;;;;;;;0.50;0.10;;;6.80;99.90;;;;;;5049422;28;20816;-73
2024/01/06 02:42:53;;;;;;;0.50;0.10;;;6.90;99.90;;;;;;5051752;28;20484;-74
2024/01/06 02:45:21;;;;;;;3.13;0.50;;;6.90;99.90;;;;;;5043076;28;20966;-74
2024/01/06 02:47:48;;;;;;;0.50;0.10;;;6.90;99.90;;;;;;5058962;28;20524;-73
2024/01/06 02:50:16;;;;;;;0.50;0.10;;;6.80;99.90;;;;;;5064420;28;20439;-73
2024/01/06 02:52:45;;;;;;;1.90;1.80;;;6.80;99.90;;;;;;5051930;28;20436;-75
2024/01/06 02:55:13;;;;;;;0.60;0.33;;;6.80;99.90;;;;;;5043079;28;20470;-75
2024/01/06 02:57:42;;;;;;;0.50;0.20;;;6.70;99.90;;;;;;5032841;28;20509;-74
2024/01/06 03:00:12;;;;;;;0.50;0.30;;;6.70;99.90;;;;;;5033285;28;20497;-74
2024/01/06 03:02:42;;;;;;;0.50;0.20;;;6.60;99.90;;;;;;5035509;28;20482;-74
2024/01/06 03:05:11;;;;;;;0.50;0.10;;;6.60;99.90;;;;;;5045660;28;20478;-74
2024/01/06 03:07:39;;;;;;;0.50;0.10;;;6.60;99.90;;;;;;5032638;28;20502;-74
2024/01/06 03:10:07;;;;;;;0.50;0.10;;;6.60;99.90;;;;;;5042666;28;20454;-74
2024/01/06 03:12:36;;;;;;;0.50;0.10;;;6.60;99.90;;;;;;5050473;28;20867;-74
2024/01/06 03:15:06;;;;;;;0.70;0.40;;;6.60;99.90;;;;;;5032653;28;20517;-75
2024/01/06 03:17:34;;;;;;;0.50;0.10;;;;;;;;;;5039407;28;20462;-74
2024/01/06 03:20:03;;;;;;;0.50;0.10;;;6.60;99.90;;;;;;5035315;28;20862;-72
2024/01/06 03:22:31;;;;;;;0.50;0.23;;;6.60;99.90;;;;;;5044372;28;20501;-74
2024/01/06 03:24:59;;;;;;;0.50;0.10;;;6.50;99.90;;;;;;5050968;28;20938;-74
2024/01/06 03:27:27;;;;;;;0.50;0.10;;;6.60;99.90;;;;;;5044692;28;20553;-74
2024/01/06 03:29:55;;;;;;;0.50;0.20;;;6.60;99.90;;;;;;5035415;28;20447;-74
2024/01/06 03:32:24;;;;;;;0.50;0.10;;;6.50;99.90;;;;;;5030361;28;20440;-75
2024/01/06 03:34:52;;;;;;;0.50;0.10;;;6.50;99.90;;;;;;5030823;28;20443;-75
2024/01/06 03:37:22;;;;;;;0.50;0.10;;;6.50;99.90;;;;;;5042184;28;20584;-74
2024/01/06 03:39:49;;;;;;;0.50;0.10;;;6.60;99.90;;;;;;5051994;28;20446;-74
2024/01/06 03:42:17;;;;;;;0.50;0.10;;;6.60;99.90;;;;;;5044066;28;20450;-74
2024/01/06 03:44:46;;;;;;;1.07;0.67;;;6.60;99.90;;;;;;5050939;28;20488;-75
2024/01/06 03:47:14;;;;;;;0.50;0.10;;;6.60;99.90;;;;;;5051700;28;20553;-75
2024/01/06 03:49:43;;;;;;;0.50;0.10;;;6.80;99.90;;;;;;5046281;28;20917;-75
2024/01/06 03:52:11;;;;;;;1.80;1.70;;;6.80;99.90;;;;;;5032247;28;20530;-75
2024/01/06 03:54:39;;;;;;;0.50;0.30;;;6.90;99.90;;;;;;5041479;28;20975;-74
2024/01/06 03:57:07;;;;;;;2.30;1.13;;;6.90;99.90;;;;;;5051372;28;20887;-74
2024/01/06 03:59:35;;;;;;;4.00;0.77;;;6.90;99.90;;;;;;5052079;28;20454;-75
2024/01/06 04:02:03;;;;;;;0.70;0.40;;;6.90;99.90;;;;;;5051782;28;20525;-76
2024/01/06 04:04:30;;;;;;;0.50;0.10;;;6.80;99.90;;;;;;5051697;28;20480;-74
2024/01/06 04:07:01;;;;;;;0.60;0.60;;;6.80;99.90;;;;;;5049235;28;20462;-74
2024/01/06 04:09:29;;;;;;;48.93;16.67;;;6.80;99.90;;;;;;5051838;28;20492;-74
2024/01/06 04:11:57;;;;;;;0.50;0.23;;;6.80;99.90;;;;;;5052299;28;20438;-75
2024/01/06 04:14:25;;;;;;;0.50;0.20;;;6.80;99.90;;;;;;5037656;28;20478;-74
2024/01/06 04:16:53;;;;;;;1.43;1.33;;;6.80;99.90;;;;;;5034625;28;20478;-74
2024/01/06 04:19:21;;;;;;;1.37;0.50;;;6.80;99.90;;;;;;5035079;28;20453;-74
2024/01/06 04:21:49;;;;;;;0.50;0.10;;;6.80;99.90;;;;;;5051746;28;20442;-74
2024/01/06 04:24:18;;;;;;;0.83;0.60;;;6.80;99.90;;;;;;5033409;28;20490;-75
2024/01/06 04:26:46;;;;;;;0.50;0.10;;;6.70;99.90;;;;;;5035715;28;20518;-74
2024/01/06 04:29:14;;;;;;;0.50;0.10;;;6.80;99.90;;;;;;5035786;28;20453;-74
2024/01/06 04:31:42;;;;;;;0.50;0.10;;;6.70;99.90;;;;;;5049226;28;20442;-74
2024/01/06 04:34:10;;;;;;;0.50;0.10;;;6.70;99.90;;;;;;5039160;28;20509;-74
2024/01/06 04:36:38;;;;;;;0.50;0.10;;;6.70;99.90;;;;;;5042403;28;20520;-74
2024/01/06 04:39:06;;;;;;;0.50;0.20;;;6.80;99.90;;;;;;5051834;28;20455;-75
2024/01/06 04:41:35;;;;;;;0.50;0.10;;;6.80;99.90;;;;;;5070853;28;20492;-74
2024/01/06 04:44:03;;;;;;;0.50;0.10;;;6.90;99.90;;;;;;5065638;28;20546;-74
2024/01/06 04:46:31;;;;;;;0.50;0.10;;;6.90;99.90;;;;;;5053862;28;20526;-74
2024/01/06 04:48:59;;;;;;;0.50;0.10;;;7.00;99.90;;;;;;5047773;28;20538;-75
2024/01/06 04:51:27;;;;;;;0.50;0.10;;;7.00;99.90;;;;;;5042662;28;20450;-75
2024/01/06 04:53:55;;;;;;;0.50;0.10;;;7.00;99.90;;;;;;5048635;28;20993;-75
2024/01/06 04:56:23;;;;;;;0.50;0.10;;;7.10;99.90;;;;;;5035000;28;20561;-74
2024/01/06 04:58:52;;;;;;;0.50;0.10;;;7.10;99.90;;;;;;5050232;28;20545;-75
2024/01/06 05:01:20;;;;;;;0.50;0.10;;;7.10;99.90;;;;;;5037530;28;20477;-74
2024/01/06 05:03:48;;;;;;;0.50;0.10;;;7.10;99.90;;;;;;5039243;28;20484;-74
2024/01/06 05:06:16;;;;;;;0.50;0.10;;;7.10;99.90;;;;;;5033378;28;20459;-74
2024/01/06 05:08:45;;;;;;;0.87;0.87;;;7.10;99.90;;;;;;5034809;28;20439;-75
2024/01/06 05:11:13;;;;;;;0.50;0.10;;;7.10;99.90;;;;;;5034140;28;20451;-74
2024/01/06 05:13:41;;;;;;;0.50;0.10;;;;;;;;;;5042038;28;20522;-74
2024/01/06 05:16:10;;;;;;;0.60;0.20;;;7.10;99.90;;;;;;5036776;28;20543;-74
2024/01/06 05:18:38;;;;;;;0.50;0.10;;;7.10;99.90;;;;;;5038783;28;20464;-75
2024/01/06 05:21:06;;;;;;;0.60;0.30;;;7.10;99.90;;;;;;5042382;28;20974;-75
2024/01/06 05:23:34;;;;;;;0.60;0.30;;;7.00;99.90;;;;;;5046189;28;20527;-74
2024/01/06 05:26:02;;;;;;;0.50;0.10;;;6.90;99.90;;;;;;5052371;28;20575;-75
2024/01/06 05:28:30;;;;;;;0.50;0.20;;;6.80;99.90;;;;;;5053728;28;20926;-74
2024/01/06 05:30:58;;;;;;;0.50;0.10;;;6.80;99.90;;;;;;5054317;28;20443;-74
2024/01/06 05:33:27;;;;;;;0.50;0.10;;;6.70;99.90;;;;;;5050680;28;20439;-75
2024/01/06 05:35:55;;;;;;;0.50;0.10;;;6.70;99.90;;;;;;5046057;28;20473;-74
2024/01/06 05:38:23;;;;;;;0.50;0.10;;;6.80;99.90;;;;;;5053787;28;20458;-75
2024/01/06 05:40:51;;;;;;;0.50;0.20;;;6.80;99.90;;;;;;5053885;28;20443;-74
2024/01/06 05:43:19;;;;;;;0.50;0.10;;;6.70;99.90;;;;;;5053895;28;20819;-73
2024/01/06 05:45:47;;;;;;;0.50;0.10;;;6.80;99.90;;;;;;5052667;28;20473;-74
2024/01/06 05:48:15;;;;;;;0.50;0.20;;;6.90;99.90;;;;;;5053140;28;20462;-73
2024/01/06 05:50:45;;;;;;;0.50;0.20;;;6.80;99.90;;;;;;5045163;28;20824;-74
2024/01/06 05:53:14;;;;;;;0.50;0.10;;;6.80;99.90;;;;;;5052642;28;20454;-74
2024/01/06 05:55:42;;;;;;;0.60;0.37;;;6.80;99.90;;;;;;5047879;28;20445;-74
2024/01/06 05:58:09;;;;;;;0.50;0.10;;;6.70;99.90;;;;;;5053171;28;20558;-74
2024/01/06 06:00:37;;;;;;;0.50;0.10;;;6.80;99.90;;;;;;5040782;28;21084;-73
2024/01/06 06:03:07;;;;;;;0.50;0.10;;;6.80;99.90;;;;;;5041578;28;20934;-74
2024/01/06 06:05:36;;;;;;;0.50;0.10;;;;;;;;;;5045588;28;20478;-74
2024/01/06 06:08:06;;;;;;;0.50;0.10;;;6.90;99.90;;;;;;5044941;28;20465;-74
2024/01/06 06:10:51;;;;;;;0.50;0.10;;;6.90;99.90;;;;;;5053065;28;20786;-74
2024/01/06 06:13:19;;;;;;;0.50;0.10;;;7.00;99.90;;;;;;5037124;28;20443;-74
2024/01/06 06:15:47;;;;;;;0.50;0.10;;;7.00;99.90;;;;;;5053552;28;20438;-75
2024/01/06 06:18:16;;;;;;;0.50;0.10;;;;;;;;;;5051508;28;20457;-74
2024/01/06 06:20:44;;;;;;;0.50;0.10;;;7.10;99.90;;;;;;5041287;28;20847;-74
2024/01/06 06:23:13;;;;;;;0.50;0.17;;;7.10;99.90;;;;;;5041833;28;20973;-73
2024/01/06 06:25:41;;;;;;;0.50;0.10;;;7.10;99.90;;;;;;5044208;28;21065;-73
2024/01/06 06:28:09;;;;;;;0.50;0.10;;;7.10;99.90;;;;;;5052749;28;20490;-75
2024/01/06 06:30:37;;;;;;;0.50;0.10;;;;;;;;;;5050321;28;20486;-74
2024/01/06 06:33:09;;;;;;;0.50;0.10;;;;;;;;;;5035121;28;20439;-74
2024/01/06 06:35:39;;;;;;;0.50;0.10;;;;;;;;;;5049206;28;20450;-75
2024/01/06 06:38:07;;;;;;;0.50;0.10;;;7.10;99.90;;;;;;5051233;28;20502;-75
2024/01/06 06:40:36;;;;;;;0.50;0.10;;;7.10;99.90;;;;;;5047156;28;20524;-75
2024/01/06 06:43:04;;;;;;;0.50;0.10;;;7.20;99.90;;;;;;5046610;28;20826;-75
2024/01/06 06:45:32;;;;;;;0.50;0.10;;;7.10;99.90;;;;;;5049686;28;20510;-74
2024/01/06 06:48:00;;;;;;;0.50;0.10;;;7.10;99.90;;;;;;5031978;28;20463;-75
2024/01/06 06:50:28;;;;;;;0.50;0.10;;;7.10;99.90;;;;;;5044523;28;20467;-74
2024/01/06 06:52:56;;;;;;;0.50;0.10;;;7.10;99.90;;;;;;5043381;28;20564;-74
2024/01/06 06:55:24;;;;;;;0.50;0.10;;;7.10;99.90;;;;;;5042068;28;20448;-75
2024/01/06 06:57:53;;;;;;;0.50;0.20;;;7.20;99.90;;;;;;5037985;28;20552;-74
2024/01/06 07:00:21;;;;;;;0.50;0.10;;;7.20;99.90;;;;;;5032172;28;20451;-75
2024/01/06 07:02:49;;;;;;;0.50;0.10;;;7.20;99.90;;;;;;5036990;28;20843;-74
2024/01/06 07:05:18;;;;;;;0.50;0.10;;;7.20;99.90;;;;;;5050935;28;20556;-75
2024/01/06 07:07:46;;;;;;;0.50;0.10;;;7.20;99.90;;;;;;5044254;28;20484;-74
2024/01/06 07:10:14;;;;;;;0.50;0.10;;;7.20;99.90;;;;;;5051173;28;20453;-74
2024/01/06 07:12:42;;;;;;;0.50;0.10;;;7.30;99.90;;;;;;5032333;28;20449;-74
2024/01/06 07:15:12;;;;;;;0.50;0.10;;;7.10;99.90;;;;;;5048715;28;20446;-73
2024/01/06 07:17:39;;;;;;;0.50;0.10;;;7.30;99.90;;;;;;5052041;28;20462;-74
2024/01/06 07:20:09;;;;;;;0.50;0.10;;;7.40;99.90;;;;;;5049923;28;20930;-74
2024/01/06 07:22:37;;;;;;;0.50;0.10;;;7.30;99.90;;;;;;5034257;28;20447;-74
2024/01/06 07:25:07;;;;;;;0.50;0.10;;;7.30;99.90;;;;;;5032170;28;20521;-73
2024/01/06 07:27:35;;;;;;;0.50;0.10;;;7.30;99.90;;;;;;5035258;28;20466;-74
2024/01/06 07:30:03;;;;;;;0.50;0.10;;;7.40;99.90;;;;;;5036976;28;20454;-73
2024/01/06 07:32:33;;;;;;;0.50;0.10;;;7.40;99.90;;;;;;5051485;28;20451;-74
2024/01/06 07:35:02;;;;;;;0.50;0.10;;;7.40;99.90;;;;;;5043791;28;20492;-74
2024/01/06 07:37:34;;;;;;;0.50;0.10;;;7.30;99.90;;;;;;5041532;28;20475;-73
2024/01/06 07:40:02;;;;;;;0.50;0.10;;;7.20;99.90;;;;;;5055534;28;20474;-74
2024/01/06 07:42:30;;;;;;;0.50;0.10;;;7.20;99.90;;;;;;5069324;28;20457;-74
2024/01/06 07:44:58;;;;;;;0.50;0.10;;;7.30;99.90;;;;;;5055241;28;20478;-74
2024/01/06 07:47:26;;;;;;;0.50;0.10;;;7.30;99.90;;;;;;5052158;28;20465;-74
2024/01/06 07:49:57;;;;;;;0.50;0.10;;;7.20;99.90;;;;;;5052197;28;20442;-74
2024/01/06 07:52:25;;;;;;;0.50;0.10;;;7.30;99.90;;;;;;5050011;28;20446;-74
2024/01/06 07:54:53;;;;;;;0.50;0.10;;;;;;;;;;5033690;28;20474;-74
2024/01/06 07:57:21;;;;;;;0.50;0.10;;;7.20;99.90;;;;;;5035797;28;20569;-74
2024/01/06 07:59:49;;;;;;;0.50;0.10;;;7.30;99.90;;;;;;5052549;28;20488;-74
2024/01/06 08:02:17;;;;;;;0.50;0.10;;;7.30;99.90;;;;;;5050322;28;20939;-75
2024/01/06 08:04:45;;;;;;;0.50;0.20;;;7.30;99.90;;;;;;5045025;28;20513;-74
2024/01/06 08:07:15;;;;;;;0.50;0.10;;;7.30;99.90;;;;;;5051657;28;20836;-74
2024/01/06 08:09:43;;;;;;;0.50;0.20;;;7.30;99.90;;;;;;5055741;28;20473;-75
2024/01/06 08:12:11;;;;;;;0.50;0.10;;;;;;;;;;5054763;28;20512;-75
2024/01/06 08:14:39;;;;;;;0.50;0.10;;;7.30;99.90;;;;;;5036859;28;20521;-76
2024/01/06 08:17:07;;;;;;;0.50;0.10;;;7.40;99.90;;;;;;5042927;28;20561;-75
2024/01/06 08:19:35;;;;;;;0.50;0.10;;;7.40;99.90;;;;;;5053787;28;20481;-75
2024/01/06 08:22:03;;;;;;;0.50;0.10;;;7.30;99.90;;;;;;5046907;28;20453;-75
2024/01/06 08:24:33;;;;;;;0.50;0.10;;;7.30;99.90;;;;;;5044248;28;20969;-75
2024/01/06 08:27:00;;;;;;;0.50;0.10;;;7.30;99.90;;;;;;5048375;28;20540;-74
2024/01/06 08:29:31;;;;;;;0.50;0.10;;;7.30;99.90;;;;;;5046995;28;20438;-74
2024/01/06 08:31:59;;;;;;;0.50;0.10;;;7.30;99.90;;;;;;5055283;28;20492;-75
2024/01/06 08:34:27;;;;;;;0.70;0.50;;;7.30;99.90;;;;;;5055070;28;20458;-75
2024/01/06 08:37:00;;;;;;;0.50;0.10;;;7.30;99.90;;;;;;5038651;28;20473;-75
2024/01/06 08:39:28;;;;;;;0.50;0.10;;;;;;;;;;5035508;28;20443;-74
2024/01/06 08:41:58;;;;;;;0.50;0.10;;;7.40;99.90;;;;;;5040431;28;20559;-74
2024/01/06 08:44:29;;;;;;;0.50;0.20;;;;;;;;;;5036695;28;20469;-73
2024/01/06 08:46:57;;;;;;;0.50;0.10;;;;;;;;;;5036024;28;20849;-75
2024/01/06 08:49:25;;;;;;;0.50;0.10;;;7.30;99.90;;;;;;5053722;28;20505;-73
2024/01/06 08:51:53;;;;;;;0.50;0.10;;;7.30;99.90;;;;;;5055822;28;20541;-75
2024/01/06 08:54:21;;;;;;;0.50;0.10;;;7.30;99.90;;;;;;5054849;28;20906;-75
2024/01/06 08:56:50;;;;;;;0.50;0.10;;;7.30;99.90;;;;;;5054535;28;20478;-76
2024/01/06 08:59:20;;;;;;;0.50;0.10;;;;;;;;;;5049266;28;20458;-76
2024/01/06 09:01:48;;;;;;;0.50;0.10;;;7.40;99.90;;;;;;5038759;28;20436;-76
2024/01/06 09:04:17;;;;;;;0.50;0.10;;;7.40;99.90;;;;;;5054561;28;20446;-75
2024/01/06 09:06:46;;;;;;;0.50;0.10;;;7.40;99.90;;;;;;5041774;28;20487;-74
2024/01/06 09:09:14;;;;;;;0.50;0.10;;;7.40;99.90;;;;;;5035197;28;20450;-75
2024/01/06 09:11:43;;;;;;;0.50;0.10;;;7.50;99.90;;;;;;5039398;28;20442;-74
2024/01/06 09:14:11;;;;;;;0.50;0.20;;;7.50;99.90;;;;;;5041026;28;20469;-74
2024/01/06 09:16:40;;;;;;;0.50;0.10;;;7.50;99.90;;;;;;5041727;28;20459;-73
2024/01/06 09:19:08;;;;;;;0.50;0.10;;;7.50;99.90;;;;;;5038896;28;20522;-74
2024/01/06 09:21:37;;;;;;;0.50;0.10;;;7.50;99.90;;;;;;5045644;28;20443;-75
2024/01/06 09:24:06;;;;;;;0.50;0.10;;;7.50;99.90;;;;;;5039715;28;20530;-74
2024/01/06 09:26:34;;;;;;;0.50;0.10;;;7.50;99.90;;;;;;5037477;28;20497;-74
2024/01/06 09:29:03;;;;;;;0.50;0.10;;;9.60;99.90;;;;;;5042543;28;20442;-75
2024/01/06 09:31:32;;;;;;;0.50;0.10;;;;;;;;;;5052505;28;20444;-76
2024/01/06 09:34:02;;;;;;;0.50;0.10;;;7.50;99.90;;;;;;5053011;28;20503;-75
2024/01/06 09:36:32;;;;;;;0.50;0.10;;;7.50;99.90;;;;;;5055658;28;20559;-75
2024/01/06 09:39:00;;;;;;;0.50;0.10;;;7.50;99.90;;;;;;5072428;28;20522;-73
2024/01/06 09:41:28;;;;;;;0.50;0.10;;;7.60;99.90;;;;;;5063239;28;20471;-74
2024/01/06 09:43:56;;;;;;;0.50;0.10;;;7.60;99.90;;;;;;5058917;28;20458;-74
2024/01/06 09:46:26;;;;;;;0.50;0.10;;;7.60;99.90;;;;;;5059363;28;21074;-74
2024/01/06 09:48:56;;;;;;;0.50;0.10;;;7.60;99.90;;;;;;5049049;28;20558;-74
2024/01/06 09:51:26;;;;;;;0.93;0.57;;;7.60;99.90;;;;;;5040872;28;20529;-74
2024/01/06 09:53:59;;;;;;;0.50;0.10;;;7.50;99.90;;;;;;5045485;28;20450;-76
2024/01/06 09:56:28;;;;;;;0.50;0.10;;;7.50;99.90;;;;;;5052233;28;20484;-73
2024/01/06 09:58:57;;;;;;;0.50;0.10;;;7.60;99.90;;;;;;5038260;28;20797;-74
2024/01/06 10:01:25;;;;;;;4.43;4.17;;;7.60;99.90;;;;;;5046841;28;20455;-74
2024/01/06 10:03:53;;;;;;;0.50;0.10;;;7.70;99.90;;;;;;5038945;28;20443;-74
2024/01/06 10:06:21;;;;;;;0.50;0.10;;;7.60;99.90;;;;;;5042609;28;20491;-74
2024/01/06 10:08:51;;;;;;;0.50;0.10;;;7.60;99.90;;;;;;5050171;28;20468;-74
2024/01/06 10:11:20;;;;;;;0.50;0.10;;;7.50;99.90;;;;;;5047041;28;21002;-76
2024/01/06 10:13:50;;;;;;;0.50;0.10;;;7.50;99.90;;;;;;5047490;28;20444;-75
2024/01/06 10:16:18;;;;;;;0.50;0.27;;;7.60;99.90;;;;;;5036685;28;20475;-73
2024/01/06 10:18:45;;;;;;;0.50;0.10;;;7.50;99.90;;;;;;5049181;28;20478;-73
2024/01/06 10:21:21;;;;;;;0.50;0.10;;;7.60;99.90;;;;;;5041340;28;20547;-73
2024/01/06 10:23:51;;;;;;;0.50;0.10;;;7.60;99.90;;;;;;5040652;28;20443;-76
2024/01/06 10:26:19;;;;;;;0.80;0.60;;;7.60;99.90;;;;;;5036136;28;20486;-73
2024/01/06 10:28:49;;;;;;;0.50;0.27;;;7.60;99.90;;;;;;5044123;28;20442;-73
2024/01/06 10:31:17;;;;;;;0.50;0.10;;;10.50;99.90;;;;;;5051879;28;20449;-74
2024/01/06 10:33:46;;;;;;;0.50;0.10;;;7.60;99.90;;;;;;5042458;28;20455;-74
2024/01/06 10:36:15;;;;;;;0.80;0.20;;;7.60;99.90;;;;;;5033385;28;20435;-75
2024/01/06 10:38:45;;;;;;;0.50;0.10;;;7.60;99.90;;;;;;5041526;28;20447;-74
2024/01/06 10:41:17;;;;;;;0.50;0.10;;;7.70;99.90;;;;;;5066018;28;20510;-73
2024/01/06 10:43:46;;;;;;;0.60;0.40;;;7.70;99.90;;;;;;5061655;28;20891;-75
2024/01/06 10:46:16;;;;;;;1.53;0.40;;;7.70;99.90;;;;;;5049455;28;20480;-74
2024/01/06 10:48:46;;;;;;;0.50;0.10;;;7.70;99.90;;;;;;5053288;28;20611;-74
2024/01/06 10:51:15;;;;;;;0.50;0.10;;;7.80;99.90;;;;;;5035948;28;20445;-75
2024/01/06 10:53:46;;;;;;;0.50;0.10;;;;;;;;;;5043266;28;20466;-74
2024/01/06 10:56:16;;;;;;;2.30;0.90;;;7.90;99.90;;;;;;5049874;28;20481;-74
2024/01/06 10:58:47;;;;;;;0.50;0.10;;;7.90;99.90;;;;;;5046513;28;20465;-73
2024/01/06 11:01:19;;;;;;;0.50;0.10;;;7.90;99.90;;;;;;5036099;28;20443;-74
2024/01/06 11:03:49;;;;;;;0.50;0.20;;;8.00;99.90;;;;;;5044774;28;20446;-74
2024/01/06 11:06:19;;;;;;;1.00;0.50;;;7.90;99.90;;;;;;5045193;28;20462;-73
2024/01/06 11:08:51;;;;;;;0.50;0.10;;;7.80;99.90;;;;;;5040877;28;20440;-74
2024/01/06 11:11:23;;;;;;;1.33;0.60;;;7.80;99.90;;;;;;5045061;28;20539;-75
2024/01/06 11:13:51;;;;;;;1.90;1.23;;;7.80;99.90;;;;;;5050765;28;20458;-75
2024/01/06 11:16:35;;;;;;;0.60;0.27;;;7.80;99.90;;;;;;5051980;28;20470;-75
2024/01/06 11:19:03;;;;;;;0.60;0.43;;;7.80;99.90;;;;;;5046594;28;20449;-73
2024/01/06 11:21:35;;;;;;;0.50;0.10;;;7.90;99.90;;;;;;5040954;28;20537;-68
2024/01/06 11:24:15;;;;;;;0.50;0.10;;;8.10;99.90;;;;;;5051357;28;20441;-73
2024/01/06 11:26:46;;;;;;;0.50;0.10;;;8.30;99.90;;;;;;5051256;28;20489;-73
2024/01/06 11:29:14;;;;;;;0.50;0.10;;;8.40;99.90;;;;;;5050602;28;20997;-74
2024/01/06 11:31:43;;;;;;;0.50;0.10;;;8.40;99.90;;;;;;5036783;28;20526;-74
2024/01/06 11:34:16;;;;;;;0.50;0.10;;;8.50;99.90;;;;;;5035647;28;20476;-75
2024/01/06 11:36:45;;;;;;;0.50;0.10;;;8.50;99.90;;;;;;5034349;28;20469;-75
2024/01/06 11:39:35;;;;;;;1.90;1.33;;;8.50;99.90;;;;;;5032330;28;20447;-76
2024/01/06 11:42:04;;;;;;;0.50;0.10;;;8.60;99.90;;;;;;5039412;28;20459;-75
2024/01/06 11:44:38;;;;;;;0.50;0.10;;;8.70;99.90;;;;;;5043518;28;20991;-73
2024/01/06 11:47:06;;;;;;;0.50;0.10;;;8.70;99.90;;;;;;5038676;28;20498;-73
2024/01/06 11:49:34;;;;;;;0.50;0.10;;;8.70;99.90;;;;;;5049089;28;20446;-73
2024/01/06 11:52:02;;;;;;;0.50;0.10;;;8.80;99.90;;;;;;5040736;28;20884;-75
2024/01/06 11:54:31;;;;;;;0.50;0.10;;;8.80;99.90;;;;;;5041916;28;20506;-75
2024/01/06 11:56:59;;;;;;;0.50;0.10;;;8.90;99.90;;;;;;5037523;28;20471;-74
2024/01/06 11:59:28;;;;;;;0.50;0.10;;;8.90;99.90;;;;;;5031775;28;20436;-74
2024/01/06 12:01:56;;;;;;;0.50;0.10;;;8.90;99.90;;;;;;5032142;28;20490;-75
2024/01/06 12:04:26;;;;;;;0.97;0.87;;;8.90;99.90;;;;;;5045393;28;20464;-77
2024/01/06 12:07:05;;;;;;;0.50;0.10;;;9.00;99.90;;;;;;5036514;28;20494;-75
2024/01/06 12:09:33;;;;;;;0.50;0.10;;;9.00;99.90;;;;;;5049420;28;20538;-74
2024/01/06 12:12:06;;;;;;;0.50;0.10;;;9.00;99.90;;;;;;5043685;28;20449;-74
2024/01/06 12:14:35;;;;;;;0.50;0.17;;;9.00;99.90;;;;;;5041955;28;20454;-75
2024/01/06 12:17:05;;;;;;;0.50;0.10;;;9.00;99.90;;;;;;5036788;28;20461;-75
2024/01/06 12:19:33;;;;;;;0.60;0.40;;;8.90;99.90;;;;;;5044078;28;20507;-75
2024/01/06 12:22:07;;;;;;;0.50;0.10;;;8.90;99.90;;;;;;5051486;28;20441;-74
2024/01/06 12:24:35;;;;;;;0.50;0.10;;;8.90;99.90;;;;;;5049290;28;20550;-76
2024/01/06 12:27:04;;;;;;;0.50;0.10;;;8.90;99.90;;;;;;5030834;28;20482;-74
2024/01/06 12:29:32;;;;;;;0.50;0.10;;;8.80;99.90;;;;;;5031513;28;20448;-76
2024/01/06 12:32:02;;;;;;;0.50;0.10;;;8.90;99.90;;;;;;5037639;28;21100;-73
2024/01/06 12:34:30;;;;;;;0.50;0.10;;;8.80;99.90;;;;;;5044437;28;20455;-74
2024/01/06 12:36:58;;;;;;;0.50;0.20;;;8.80;99.90;;;;;;5034193;28;20470;-77
2024/01/06 12:39:28;;;;;;;0.50;0.20;;;8.80;99.90;;;;;;5039237;28;20465;-74
2024/01/06 12:41:56;;;;;;;2.37;0.93;;;8.80;99.90;;;;;;5035415;28;20429;-74
2024/01/06 12:44:24;;;;;;;0.50;0.10;;;8.80;99.90;;;;;;5034900;28;20479;-74
2024/01/06 12:46:52;;;;;;;0.50;0.10;;;8.90;99.90;;;;;;5033290;28;20529;-74
2024/01/06 12:49:22;;;;;;;0.50;0.10;;;;;;;;;;5040742;28;20488;-75
2024/01/06 12:51:50;;;;;;;0.50;0.10;;;8.90;99.90;;;;;;5045695;28;20450;-75
2024/01/06 12:54:18;;;;;;;0.50;0.10;;;8.90;99.90;;;;;;5052995;28;20457;-74
2024/01/06 12:56:46;;;;;;;0.50;0.10;;;8.90;99.90;;;;;;5053169;28;20480;-75
2024/01/06 12:59:14;;;;;;;0.50;0.20;;;8.90;99.90;;;;;;5048603;28;20950;-74
2024/01/06 13:01:42;;;;;;;0.50;0.10;;;8.90;99.90;;;;;;5036209;28;20850;-74
2024/01/06 13:04:10;;;;;;;0.50;0.10;;;8.90;99.90;;;;;;5041279;28;21027;-74
2024/01/06 13:06:40;;;;;;;0.50;0.10;;;9.00;99.90;;;;;;5039773;28;20961;-76
2024/01/06 13:09:09;;;;;;;0.50;0.10;;;;;;;;;;5049351;28;20486;-75
2024/01/06 13:11:37;;;;;;;0.50;0.20;;;9.00;99.90;;;;;;5041546;28;20459;-74